Metar z połowy godziny Komunikat METAR ze strony awiacja.imgw.pl Metar G30 EPZG METAR EPZG 240430Z 19010KT 3000 RA BR BKN010 OVC016 04/04 Q1020 =